createdAt,value
2019-03-28T00:00:29.543Z,8.00
2019-03-28T00:01:29.522Z,8.20
2019-03-28T00:02:29.518Z,8.40
2019-03-28T00:03:29.506Z,7.80
2019-03-28T00:04:29.489Z,8.70
2019-03-28T00:05:29.496Z,7.60
2019-03-28T00:06:29.466Z,7.50
2019-03-28T00:07:29.462Z,7.80
2019-03-28T00:08:29.483Z,8.00
2019-03-28T00:09:29.483Z,8.20
2019-03-28T00:10:29.436Z,8.20
2019-03-28T00:11:29.420Z,7.70
2019-03-28T00:12:29.422Z,8.10
2019-03-28T00:13:30.101Z,8.00
2019-03-28T00:14:29.383Z,8.60
2019-03-28T00:15:29.375Z,7.70
2019-03-28T00:16:29.364Z,8.50
2019-03-28T00:17:29.363Z,7.60
2019-03-28T00:18:29.347Z,8.30
2019-03-28T00:19:29.331Z,7.90
2019-03-28T00:20:29.340Z,8.10
2019-03-28T00:21:29.324Z,8.40
2019-03-28T00:22:29.298Z,8.50
2019-03-28T00:23:29.290Z,8.60
2019-03-28T00:24:29.278Z,8.20
2019-03-28T00:25:29.275Z,8.30
2019-03-28T00:26:30.689Z,8.30
2019-03-28T00:27:29.252Z,8.60
2019-03-28T00:28:29.247Z,8.50
2019-03-28T00:29:29.242Z,8.70
2019-03-28T00:30:29.249Z,8.30
2019-03-28T00:31:29.271Z,8.80
2019-03-28T00:32:29.195Z,8.00
2019-03-28T00:33:29.215Z,8.80
2019-03-28T00:34:29.182Z,8.50
2019-03-28T00:35:29.172Z,8.60
2019-03-28T00:36:29.150Z,8.00
2019-03-28T00:37:29.186Z,8.60
2019-03-28T00:38:29.143Z,8.00
2019-03-28T00:39:29.119Z,8.30
2019-03-28T00:40:29.144Z,8.70
2019-03-28T00:41:29.155Z,8.90
2019-03-28T00:42:29.087Z,8.60
2019-03-28T00:43:29.076Z,8.40
2019-03-28T00:44:29.109Z,7.80
2019-03-28T00:45:29.066Z,8.10
2019-03-28T00:46:29.054Z,8.30
2019-03-28T00:47:29.050Z,7.70
2019-03-28T00:48:29.026Z,8.50
2019-03-28T00:49:29.032Z,8.30
2019-03-28T00:50:29.014Z,8.70
2019-03-28T00:51:28.991Z,8.30
2019-03-28T00:52:28.984Z,8.50
2019-03-28T00:53:28.977Z,7.60
2019-03-28T00:54:28.963Z,7.90
2019-03-28T00:55:28.979Z,8.50
2019-03-28T00:56:28.948Z,7.70
2019-03-28T00:57:28.931Z,8.20
2019-03-28T00:58:28.943Z,7.90
2019-03-28T00:59:28.968Z,7.90
2019-03-28T01:00:28.926Z,7.90
2019-03-28T01:01:28.889Z,7.90
2019-03-28T01:02:28.886Z,8.30
2019-03-28T01:03:28.891Z,7.70
2019-03-28T01:04:28.862Z,8.00
2019-03-28T01:05:28.858Z,8.30
2019-03-28T01:06:28.972Z,7.70
2019-03-28T01:07:28.825Z,7.70
2019-03-28T01:08:28.819Z,8.00
2019-03-28T01:09:28.807Z,7.90
2019-03-28T01:10:28.810Z,7.50
2019-03-28T01:11:28.784Z,7.60
2019-03-28T01:12:28.780Z,7.90
2019-03-28T01:13:28.767Z,8.40
2019-03-28T01:14:28.767Z,8.20
2019-03-28T01:15:28.765Z,7.90
2019-03-28T01:16:28.737Z,8.20
2019-03-28T01:17:28.730Z,8.40
2019-03-28T01:18:28.710Z,8.30
2019-03-28T01:19:28.696Z,8.00
2019-03-28T01:20:28.690Z,8.30
2019-03-28T01:21:28.680Z,8.50
2019-03-28T01:22:28.667Z,8.20
2019-03-28T01:23:28.665Z,8.70
2019-03-28T01:24:28.656Z,8.40
2019-03-28T01:25:28.640Z,8.70
2019-03-28T01:26:28.639Z,8.60
2019-03-28T01:27:28.616Z,8.70
2019-03-28T01:28:28.688Z,7.90
2019-03-28T01:29:28.605Z,7.80
2019-03-28T01:30:28.584Z,8.70
2019-03-28T01:31:28.585Z,8.10
2019-03-28T01:32:28.603Z,8.20
2019-03-28T01:33:28.569Z,8.40
2019-03-28T01:34:28.542Z,8.50
2019-03-28T01:35:28.690Z,8.00
2019-03-28T01:36:28.529Z,8.00
2019-03-28T01:37:29.244Z,8.80
2019-03-28T01:38:28.501Z,8.50
2019-03-28T01:39:28.491Z,7.80
2019-03-28T01:40:28.482Z,8.40
2019-03-28T01:41:28.471Z,8.30
2019-03-28T01:42:28.470Z,8.70
2019-03-28T01:43:28.461Z,8.50
2019-03-28T01:44:28.473Z,8.40
2019-03-28T01:45:28.485Z,8.60
2019-03-28T01:46:28.435Z,8.30
2019-03-28T01:47:28.408Z,8.40
2019-03-28T01:48:28.396Z,8.70
2019-03-28T01:49:28.387Z,8.50
2019-03-28T01:50:28.382Z,8.20
2019-03-28T01:51:28.382Z,8.30
2019-03-28T01:52:28.356Z,8.40
2019-03-28T01:53:28.339Z,8.20
2019-03-28T01:54:28.372Z,8.00
2019-03-28T01:55:28.320Z,8.10
2019-03-28T01:56:28.317Z,8.40
2019-03-28T01:57:28.310Z,8.50
2019-03-28T01:58:28.301Z,8.20
2019-03-28T01:59:28.288Z,7.90
2019-03-28T02:00:28.271Z,8.20
2019-03-28T02:01:28.281Z,8.00
2019-03-28T02:02:28.245Z,8.10
2019-03-28T02:03:28.235Z,8.10
2019-03-28T02:04:28.260Z,8.30
2019-03-28T02:05:28.232Z,7.70
2019-03-28T02:06:28.213Z,7.90
2019-03-28T02:07:28.207Z,8.00
2019-03-28T02:08:28.189Z,7.90
2019-03-28T02:09:28.182Z,8.00
2019-03-28T02:10:28.172Z,7.90
2019-03-28T02:11:28.172Z,7.90
2019-03-28T02:12:28.140Z,7.90
2019-03-28T02:13:28.170Z,8.00
2019-03-28T02:14:28.127Z,8.00
2019-03-28T02:15:28.116Z,7.90
2019-03-28T02:16:28.132Z,8.20
2019-03-28T02:17:28.085Z,7.40
2019-03-28T02:18:28.171Z,8.00
2019-03-28T02:19:28.096Z,7.50
2019-03-28T02:20:28.088Z,7.90
2019-03-28T02:21:28.043Z,8.20
2019-03-28T02:22:28.129Z,7.70
2019-03-28T02:23:28.030Z,7.80
2019-03-28T02:24:28.014Z,7.80
2019-03-28T02:25:28.013Z,7.70
2019-03-28T02:26:27.998Z,7.80
2019-03-28T02:27:27.997Z,8.10
2019-03-28T02:28:27.978Z,7.90
2019-03-28T02:29:27.975Z,7.90
2019-03-28T02:30:27.952Z,8.10
2019-03-28T02:31:27.943Z,7.40
2019-03-28T02:32:27.935Z,7.60
2019-03-28T02:33:28.587Z,7.90
2019-03-28T02:34:27.910Z,7.10
2019-03-28T02:35:27.893Z,7.40
2019-03-28T02:36:27.886Z,7.70
2019-03-28T02:37:27.905Z,8.10
2019-03-28T02:38:27.863Z,7.90
2019-03-28T02:39:27.853Z,7.90
2019-03-28T02:40:27.863Z,7.80
2019-03-28T02:41:27.833Z,8.00
2019-03-28T02:42:28.169Z,8.40
2019-03-28T02:43:27.812Z,7.80
2019-03-28T02:44:27.808Z,8.30
2019-03-28T02:45:27.801Z,7.90
2019-03-28T02:46:27.797Z,7.70
2019-03-28T02:47:27.787Z,7.40
2019-03-28T02:48:27.985Z,7.90
2019-03-28T02:49:27.773Z,8.00
2019-03-28T02:50:27.744Z,7.70
2019-03-28T02:51:27.729Z,7.70
2019-03-28T02:52:27.735Z,8.00
2019-03-28T02:53:27.716Z,7.30
2019-03-28T02:54:27.822Z,7.70
2019-03-28T02:55:27.717Z,8.30
2019-03-28T02:56:27.683Z,7.60
2019-03-28T02:57:40.301Z,8.00
2019-03-28T02:58:28.671Z,7.50
2019-03-28T02:59:28.505Z,8.20
2019-03-28T03:00:27.644Z,8.20
2019-03-28T03:01:30.269Z,7.60
2019-03-28T03:02:27.699Z,7.60
2019-03-28T03:03:27.625Z,8.30
2019-03-28T03:04:27.597Z,7.30
2019-03-28T03:05:27.578Z,8.30
2019-03-28T03:06:27.579Z,7.30
2019-03-28T03:07:27.581Z,7.90
2019-03-28T03:08:27.552Z,8.10
2019-03-28T03:09:27.541Z,8.00
2019-03-28T03:10:27.540Z,7.30
2019-03-28T03:11:27.526Z,8.00
2019-03-28T03:12:27.886Z,8.10
2019-03-28T03:13:27.499Z,7.60
2019-03-28T03:14:27.517Z,7.60
2019-03-28T03:15:27.503Z,8.40
2019-03-28T03:16:27.476Z,7.60
2019-03-28T03:17:27.465Z,7.70
2019-03-28T03:18:27.446Z,7.80
2019-03-28T03:19:27.436Z,7.80
2019-03-28T03:20:27.478Z,7.70
2019-03-28T03:21:27.422Z,8.20
2019-03-28T03:22:28.610Z,8.30
2019-03-28T03:23:27.411Z,7.30
2019-03-28T03:24:27.417Z,7.60
2019-03-28T03:25:27.369Z,7.60
2019-03-28T03:26:27.365Z,8.20
2019-03-28T03:27:27.354Z,7.80
2019-03-28T03:28:27.345Z,7.90
2019-03-28T03:29:27.374Z,7.80
2019-03-28T03:30:27.342Z,8.00
2019-03-28T03:31:27.359Z,8.00
2019-03-28T03:32:27.305Z,7.70
2019-03-28T03:33:27.290Z,7.20
2019-03-28T03:34:27.284Z,7.60
2019-03-28T03:35:27.955Z,7.60
2019-03-28T03:36:27.254Z,7.90
2019-03-28T03:37:27.269Z,7.90
2019-03-28T03:38:27.321Z,7.80
2019-03-28T03:39:27.220Z,8.70
2019-03-28T03:40:27.221Z,7.50
2019-03-28T03:41:27.210Z,7.40
2019-03-28T03:42:27.191Z,7.70
2019-03-28T03:43:27.187Z,7.70
2019-03-28T03:44:27.171Z,7.60
2019-03-28T03:45:27.178Z,7.70
2019-03-28T03:46:27.653Z,8.10
2019-03-28T03:47:27.134Z,8.40
2019-03-28T03:48:27.135Z,7.80
2019-03-28T03:49:27.127Z,7.90
2019-03-28T03:50:27.105Z,7.70
2019-03-28T03:51:27.092Z,8.00
2019-03-28T03:52:27.100Z,7.40
2019-03-28T03:53:27.132Z,7.70
2019-03-28T03:54:27.062Z,8.40
2019-03-28T03:55:27.047Z,8.30
2019-03-28T03:56:27.070Z,7.40
2019-03-28T03:57:27.039Z,8.30
2019-03-28T03:58:27.036Z,8.40
2019-03-28T03:59:27.029Z,8.70
2019-03-28T04:00:26.995Z,8.30
2019-03-28T04:01:26.988Z,8.80
2019-03-28T04:02:26.974Z,8.20
2019-03-28T04:03:26.982Z,8.80
2019-03-28T04:04:26.956Z,8.00
2019-03-28T04:05:27.054Z,7.60
2019-03-28T04:06:26.948Z,7.40
2019-03-28T04:07:26.920Z,7.50
2019-03-28T04:08:27.239Z,7.80
2019-03-28T04:09:26.909Z,8.20
2019-03-28T04:10:26.955Z,8.60
2019-03-28T04:11:26.879Z,8.60
2019-03-28T04:12:26.881Z,7.90
2019-03-28T04:13:26.874Z,7.60
2019-03-28T04:14:26.853Z,7.70
2019-03-28T04:15:26.949Z,7.50
2019-03-28T04:16:26.839Z,7.20
2019-03-28T04:17:26.816Z,7.60
2019-03-28T04:18:26.824Z,7.80
2019-03-28T04:19:26.814Z,7.60
2019-03-28T04:20:26.829Z,7.70
2019-03-28T04:21:26.769Z,8.20
2019-03-28T04:22:26.773Z,7.90
2019-03-28T04:23:26.798Z,7.60
2019-03-28T04:24:26.737Z,8.30
2019-03-28T04:25:26.728Z,7.60
2019-03-28T04:26:26.722Z,7.40
2019-03-28T04:27:26.742Z,8.00
2019-03-28T04:28:31.974Z,7.50
2019-03-28T04:29:27.731Z,8.40
2019-03-28T04:30:26.719Z,6.90
2019-03-28T04:31:26.662Z,7.90
2019-03-28T04:32:26.683Z,7.50
2019-03-28T04:33:26.650Z,7.60
2019-03-28T04:34:26.646Z,7.10
2019-03-28T04:35:26.734Z,7.90
2019-03-28T04:36:26.614Z,7.90
2019-03-28T04:37:26.599Z,7.60
2019-03-28T04:38:26.590Z,7.70
2019-03-28T04:39:26.595Z,7.90
2019-03-28T04:40:26.570Z,7.40
2019-03-28T04:41:26.574Z,7.50
2019-03-28T04:42:26.567Z,7.60
2019-03-28T04:43:26.563Z,8.10
2019-03-28T04:44:26.527Z,7.90
2019-03-28T04:45:26.514Z,7.60
2019-03-28T04:46:26.509Z,8.10
2019-03-28T04:47:26.498Z,8.30
2019-03-28T04:48:27.317Z,8.40
2019-03-28T04:49:26.482Z,7.70
2019-03-28T04:50:26.647Z,7.70
2019-03-28T04:51:27.443Z,7.90
2019-03-28T04:52:26.445Z,8.90
2019-03-28T04:53:29.461Z,8.40
2019-03-28T04:54:26.434Z,8.30
2019-03-28T04:55:26.412Z,8.40
2019-03-28T04:56:26.404Z,8.20
2019-03-28T04:57:26.393Z,7.70
2019-03-28T04:58:26.381Z,8.20
2019-03-28T04:59:26.373Z,7.60
2019-03-28T05:00:26.374Z,8.70
2019-03-28T05:01:26.345Z,9.20
2019-03-28T05:02:26.348Z,8.80
2019-03-28T05:03:26.328Z,9.10
2019-03-28T05:04:26.339Z,8.80
2019-03-28T05:05:26.312Z,8.90
2019-03-28T05:06:26.290Z,8.10
2019-03-28T05:07:26.286Z,8.10
2019-03-28T05:08:26.317Z,7.90
2019-03-28T05:09:26.288Z,7.90
2019-03-28T05:10:26.243Z,8.50
2019-03-28T05:11:26.303Z,8.60
2019-03-28T05:12:26.335Z,8.70
2019-03-28T05:13:26.217Z,9.00
2019-03-28T05:14:26.210Z,9.10
2019-03-28T05:15:26.194Z,8.60
2019-03-28T05:16:26.197Z,8.30
2019-03-28T05:17:26.174Z,8.10
2019-03-28T05:18:26.266Z,9.20
2019-03-28T05:19:26.174Z,8.00
2019-03-28T05:20:26.136Z,7.90
2019-03-28T05:21:26.138Z,8.90
2019-03-28T05:22:26.120Z,8.00
2019-03-28T05:23:26.115Z,8.40
2019-03-28T05:24:26.110Z,8.40
2019-03-28T05:25:26.113Z,9.00
2019-03-28T05:26:26.092Z,8.40
2019-03-28T05:27:26.079Z,8.50
2019-03-28T05:28:26.076Z,8.30
2019-03-28T05:29:26.622Z,8.80
2019-03-28T05:30:26.034Z,8.90
2019-03-28T05:31:26.028Z,8.00
2019-03-28T05:32:26.295Z,8.60
2019-03-28T05:33:26.012Z,9.60
2019-03-28T05:34:25.989Z,9.20
2019-03-28T05:35:26.422Z,8.20
2019-03-28T05:36:25.992Z,8.50
2019-03-28T05:37:25.965Z,8.60
2019-03-28T05:38:25.955Z,7.80
2019-03-28T05:39:25.944Z,7.80
2019-03-28T05:40:25.977Z,8.90
2019-03-28T05:41:25.926Z,8.50
2019-03-28T05:42:25.906Z,8.50
2019-03-28T05:43:25.948Z,9.00
2019-03-28T05:44:25.886Z,8.30
2019-03-28T05:45:25.873Z,8.60
2019-03-28T05:46:25.891Z,8.50
2019-03-28T05:47:25.995Z,8.50
2019-03-28T05:48:25.851Z,8.80
2019-03-28T05:49:25.830Z,8.00
2019-03-28T05:50:25.834Z,8.20
2019-03-28T05:51:25.814Z,8.40
2019-03-28T05:52:25.816Z,9.10
2019-03-28T05:53:25.864Z,8.20
2019-03-28T05:54:25.798Z,8.00
2019-03-28T05:55:25.778Z,8.60
2019-03-28T05:56:25.760Z,8.30
2019-03-28T05:57:25.750Z,7.80
2019-03-28T05:58:25.743Z,8.50
2019-03-28T05:59:25.737Z,7.90
2019-03-28T06:00:25.716Z,7.80
2019-03-28T06:01:25.720Z,8.10
2019-03-28T06:02:25.696Z,8.20
2019-03-28T06:03:25.683Z,8.40
2019-03-28T06:04:25.685Z,8.30
2019-03-28T06:05:26.364Z,8.40
2019-03-28T06:06:25.654Z,8.50
2019-03-28T06:07:25.645Z,9.00
2019-03-28T06:08:25.709Z,8.60
2019-03-28T06:09:25.676Z,8.80
2019-03-28T06:10:25.621Z,8.20
2019-03-28T06:11:25.600Z,8.70
2019-03-28T06:12:25.605Z,8.30
2019-03-28T06:13:25.576Z,8.30
2019-03-28T06:14:25.573Z,8.20
2019-03-28T06:15:25.558Z,8.50
2019-03-28T06:16:26.062Z,8.70
2019-03-28T06:17:25.548Z,8.00
2019-03-28T06:18:25.533Z,8.40
2019-03-28T06:19:25.515Z,8.00
2019-03-28T06:20:25.524Z,8.00
2019-03-28T06:21:25.497Z,8.00
2019-03-28T06:22:25.495Z,7.70
2019-03-28T06:23:25.479Z,8.10
2019-03-28T06:24:25.465Z,8.10
2019-03-28T06:25:25.461Z,7.80
2019-03-28T06:26:25.445Z,8.20
2019-03-28T06:27:25.430Z,8.30
2019-03-28T06:28:25.600Z,7.40
2019-03-28T06:29:25.898Z,8.20
2019-03-28T06:30:25.409Z,8.20
2019-03-28T06:31:25.396Z,8.20
2019-03-28T06:32:25.427Z,7.70
2019-03-28T06:33:25.377Z,8.00
2019-03-28T06:34:25.947Z,8.00
2019-03-28T06:35:25.360Z,8.00
2019-03-28T06:36:26.706Z,7.90
2019-03-28T06:37:25.358Z,7.50
2019-03-28T06:38:25.432Z,7.90
2019-03-28T06:39:25.314Z,7.20
2019-03-28T06:40:25.310Z,8.00
2019-03-28T06:41:25.289Z,8.00
2019-03-28T06:42:25.279Z,7.30
2019-03-28T06:43:25.269Z,7.70
2019-03-28T06:44:25.260Z,7.70
2019-03-28T06:45:25.582Z,7.50
2019-03-28T06:46:25.243Z,8.00
2019-03-28T06:47:25.222Z,7.80
2019-03-28T06:48:25.228Z,7.80
2019-03-28T06:49:25.219Z,7.50
2019-03-28T06:50:25.251Z,7.50
2019-03-28T06:51:25.179Z,7.80
2019-03-28T06:52:25.167Z,7.70
2019-03-28T06:53:25.162Z,7.50
2019-03-28T06:54:25.179Z,8.00
2019-03-28T06:55:25.679Z,7.30
2019-03-28T06:56:25.550Z,7.30
2019-03-28T06:57:25.116Z,7.10
2019-03-28T06:58:25.128Z,7.40
2019-03-28T06:59:36.611Z,7.40
2019-03-28T07:00:26.223Z,7.40
2019-03-28T07:01:25.083Z,7.10
2019-03-28T07:02:25.108Z,6.80
2019-03-28T07:03:25.048Z,7.10
2019-03-28T07:04:25.062Z,7.00
2019-03-28T07:05:25.123Z,7.00
2019-03-28T07:06:25.037Z,7.60
2019-03-28T07:07:25.017Z,7.30
2019-03-28T07:08:25.447Z,7.10
2019-03-28T07:09:24.986Z,7.30
2019-03-28T07:10:24.974Z,7.40
2019-03-28T07:11:24.972Z,7.40
2019-03-28T07:12:24.965Z,7.40
2019-03-28T07:13:24.984Z,7.60
2019-03-28T07:14:24.979Z,7.20
2019-03-28T07:15:24.941Z,6.90
2019-03-28T07:16:24.911Z,7.40
2019-03-28T07:17:24.930Z,7.30
2019-03-28T07:18:24.937Z,7.40
2019-03-28T07:19:24.881Z,7.70
2019-03-28T07:20:24.948Z,7.20
2019-03-28T07:21:25.043Z,6.50
2019-03-28T07:22:24.858Z,6.60
2019-03-28T07:23:24.897Z,7.10
2019-03-28T07:24:24.830Z,7.10
2019-03-28T07:25:25.718Z,7.70
2019-03-28T07:26:24.804Z,7.00
2019-03-28T07:27:24.796Z,7.40
2019-03-28T07:28:24.791Z,6.30
2019-03-28T07:29:25.463Z,6.50
2019-03-28T07:30:24.769Z,6.70
2019-03-28T07:31:24.771Z,6.10
2019-03-28T07:32:24.760Z,6.30
2019-03-28T07:33:24.737Z,6.80
2019-03-28T07:34:24.747Z,6.60
2019-03-28T07:35:24.711Z,6.60
2019-03-28T07:36:24.713Z,7.20
2019-03-28T07:37:27.837Z,6.80
2019-03-28T07:38:24.718Z,6.90
2019-03-28T07:39:24.680Z,7.10
2019-03-28T07:40:25.626Z,6.70
2019-03-28T07:41:24.672Z,6.40
2019-03-28T07:42:24.668Z,6.40
2019-03-28T07:43:25.266Z,6.70
2019-03-28T07:44:24.610Z,6.10
2019-03-28T07:45:24.617Z,6.20
2019-03-28T07:46:24.611Z,5.50
2019-03-28T07:47:24.588Z,6.10
2019-03-28T07:48:24.572Z,5.70
2019-03-28T07:49:24.554Z,5.20
2019-03-28T07:50:24.544Z,5.10
2019-03-28T07:51:24.531Z,5.90
2019-03-28T07:52:24.589Z,5.90
2019-03-28T07:53:24.514Z,5.70
2019-03-28T07:54:24.510Z,5.80
2019-03-28T07:55:24.498Z,5.50
2019-03-28T07:56:24.472Z,5.80
2019-03-28T07:57:24.491Z,5.20
2019-03-28T07:58:24.463Z,5.60
2019-03-28T07:59:24.461Z,5.80
2019-03-28T08:00:24.437Z,5.50
2019-03-28T08:01:24.426Z,5.50
2019-03-28T08:02:24.419Z,5.70
2019-03-28T08:03:24.410Z,5.80
2019-03-28T08:04:24.483Z,5.30
2019-03-28T08:05:24.406Z,5.70
2019-03-28T08:06:24.367Z,6.20
2019-03-28T08:07:24.370Z,5.40
2019-03-28T08:08:24.378Z,5.00
2019-03-28T08:09:36.008Z,4.60
2019-03-28T08:10:25.359Z,3.90
2019-03-28T08:11:24.477Z,5.10
2019-03-28T08:12:24.326Z,4.60
2019-03-28T08:13:24.300Z,4.90
2019-03-28T08:14:24.295Z,5.50
2019-03-28T08:15:24.282Z,5.20
2019-03-28T08:16:24.263Z,4.50
2019-03-28T08:17:24.289Z,4.20
2019-03-28T08:18:24.246Z,4.00
2019-03-28T08:19:24.285Z,4.20
2019-03-28T08:20:24.229Z,4.80
2019-03-28T08:21:24.214Z,3.70
2019-03-28T08:22:24.224Z,4.00
2019-03-28T08:23:24.241Z,4.40
2019-03-28T08:24:24.187Z,3.80
2019-03-28T08:25:24.257Z,4.00
2019-03-28T08:26:24.153Z,3.90
2019-03-28T08:27:24.146Z,4.00
2019-03-28T08:28:24.140Z,5.00
2019-03-28T08:29:24.167Z,3.80
2019-03-28T08:30:24.129Z,3.90
2019-03-28T08:31:24.096Z,4.10
2019-03-28T08:32:24.120Z,4.30
2019-03-28T08:33:24.080Z,4.60
2019-03-28T08:34:24.075Z,4.50
2019-03-28T08:35:24.056Z,4.20
2019-03-28T08:36:24.046Z,6.40
2019-03-28T08:37:24.030Z,5.00
2019-03-28T08:38:24.044Z,4.10
2019-03-28T08:39:24.026Z,3.80
2019-03-28T08:40:24.224Z,3.70
2019-03-28T08:41:23.989Z,4.40
2019-03-28T08:42:23.981Z,3.60
2019-03-28T08:43:23.975Z,3.70
2019-03-28T08:44:23.961Z,3.80
2019-03-28T08:45:23.955Z,4.00
2019-03-28T08:46:23.937Z,3.90
2019-03-28T08:47:23.933Z,4.20
2019-03-28T08:48:23.935Z,3.60
2019-03-28T08:49:23.913Z,4.30
2019-03-28T08:50:23.899Z,3.70
2019-03-28T08:51:27.134Z,4.40
2019-03-28T08:52:23.875Z,3.60
2019-03-28T08:53:23.878Z,3.70
2019-03-28T08:54:23.868Z,3.90
2019-03-28T08:55:23.856Z,4.20
2019-03-28T08:56:23.833Z,3.70
2019-03-28T08:57:23.840Z,4.20
2019-03-28T08:58:23.834Z,3.80
2019-03-28T08:59:23.811Z,3.90
2019-03-28T09:00:33.052Z,3.60
2019-03-28T09:01:24.792Z,3.70
2019-03-28T09:02:23.779Z,3.60
2019-03-28T09:03:23.774Z,4.30
2019-03-28T09:04:23.764Z,3.80
2019-03-28T09:05:23.734Z,4.20
2019-03-28T09:06:23.753Z,3.90
2019-03-28T09:07:23.728Z,4.30
2019-03-28T09:08:23.806Z,3.80
2019-03-28T09:09:23.708Z,4.40
2019-03-28T09:10:23.771Z,4.00
2019-03-28T09:11:23.672Z,3.90
2019-03-28T09:12:23.665Z,4.20
2019-03-28T09:13:23.652Z,3.80
2019-03-28T09:14:23.657Z,3.80
2019-03-28T09:15:23.679Z,4.10
2019-03-28T09:16:23.639Z,3.90
2019-03-28T09:17:23.958Z,3.80
2019-03-28T09:18:31.557Z,4.60
2019-03-28T09:19:23.627Z,4.50
2019-03-28T09:20:23.596Z,4.20
2019-03-28T09:21:23.571Z,4.00
2019-03-28T09:22:23.565Z,6.80
2019-03-28T09:23:23.549Z,41.30
2019-03-28T09:24:23.554Z,6.40
2019-03-28T09:25:23.528Z,6.40
2019-03-28T09:26:23.524Z,4.00
2019-03-28T09:27:23.503Z,4.30
2019-03-28T09:28:23.496Z,4.60
2019-03-28T09:29:23.493Z,4.20
2019-03-28T09:30:23.506Z,4.30
2019-03-28T09:31:23.467Z,4.60
2019-03-28T09:32:23.467Z,4.60
2019-03-28T09:33:23.446Z,4.40
2019-03-28T09:34:23.435Z,4.80
2019-03-28T09:35:23.443Z,4.80
2019-03-28T09:36:23.427Z,5.00
2019-03-28T09:37:23.399Z,4.30
2019-03-28T09:38:23.388Z,4.30
2019-03-28T09:39:24.870Z,4.60
2019-03-28T09:40:23.372Z,4.50
2019-03-28T09:41:23.370Z,4.50
2019-03-28T09:42:23.362Z,4.50
2019-03-28T09:43:23.354Z,4.90
2019-03-28T09:44:23.337Z,5.20
2019-03-28T09:45:23.344Z,5.00
2019-03-28T09:46:23.306Z,5.00
2019-03-28T09:47:23.303Z,5.20
2019-03-28T09:48:23.290Z,4.50
2019-03-28T09:49:23.286Z,6.00
2019-03-28T09:50:23.267Z,5.30
2019-03-28T09:51:23.252Z,5.30
2019-03-28T09:52:23.261Z,5.00
2019-03-28T09:53:23.255Z,5.20
2019-03-28T09:54:23.237Z,5.00
2019-03-28T09:55:23.215Z,5.50
2019-03-28T09:56:23.199Z,5.10
2019-03-28T09:57:23.193Z,5.10
2019-03-28T09:58:23.197Z,5.00
2019-03-28T09:59:23.184Z,5.90
2019-03-28T10:00:23.165Z,5.10
2019-03-28T10:01:23.146Z,4.90
2019-03-28T10:02:23.139Z,5.30
2019-03-28T10:03:23.130Z,5.90
2019-03-28T10:04:23.132Z,5.90
2019-03-28T10:05:23.113Z,5.60
2019-03-28T10:06:23.099Z,5.30
2019-03-28T10:07:23.099Z,5.20
2019-03-28T10:08:23.074Z,5.50
2019-03-28T10:09:23.090Z,5.50
2019-03-28T10:10:23.059Z,5.20
2019-03-28T10:11:23.046Z,5.10
2019-03-28T10:12:23.074Z,4.90
2019-03-28T10:13:23.034Z,5.10
2019-03-28T10:14:23.023Z,4.90
2019-03-28T10:15:23.003Z,5.10
2019-03-28T10:16:22.986Z,4.50
2019-03-28T10:17:22.991Z,4.20
2019-03-28T10:18:22.982Z,4.50
2019-03-28T10:19:22.976Z,4.60
2019-03-28T10:20:22.947Z,3.70
2019-03-28T10:21:22.934Z,4.20
2019-03-28T10:22:22.927Z,4.40
2019-03-28T10:23:22.917Z,4.30
2019-03-28T10:24:22.911Z,4.90
2019-03-28T10:25:22.893Z,4.40
2019-03-28T10:26:22.892Z,4.60
2019-03-28T10:27:22.875Z,4.00
2019-03-28T10:28:22.878Z,4.80
2019-03-28T10:29:22.856Z,4.40
2019-03-28T10:30:22.846Z,4.60
2019-03-28T10:31:22.823Z,5.10
2019-03-28T10:32:22.828Z,5.00
2019-03-28T10:33:22.832Z,4.90
2019-03-28T10:34:22.821Z,5.00
2019-03-28T10:35:22.825Z,5.20
2019-03-28T10:36:22.795Z,5.70
2019-03-28T10:37:22.774Z,4.70
2019-03-28T10:38:22.779Z,5.40
2019-03-28T10:39:22.760Z,5.10
2019-03-28T10:40:22.767Z,5.30
2019-03-28T10:41:25.731Z,4.90
2019-03-28T10:42:22.721Z,5.20
2019-03-28T10:43:22.719Z,5.50
2019-03-28T10:44:22.722Z,5.30
2019-03-28T10:45:22.749Z,5.40
2019-03-28T10:46:22.698Z,5.00
2019-03-28T10:47:22.674Z,5.20
2019-03-28T10:48:23.512Z,4.90
2019-03-28T10:49:22.651Z,4.50
2019-03-28T10:50:22.675Z,5.00
2019-03-28T10:51:22.636Z,5.00
2019-03-28T10:52:22.624Z,4.90
2019-03-28T10:53:22.614Z,5.30
2019-03-28T10:54:25.622Z,5.40
2019-03-28T10:55:22.627Z,4.80
2019-03-28T10:56:24.087Z,4.90
2019-03-28T10:57:29.827Z,5.30
2019-03-28T10:58:24.646Z,5.10
2019-03-28T10:59:23.812Z,5.20
2019-03-28T11:00:24.231Z,5.20
2019-03-28T11:01:41.627Z,4.70
2019-03-28T11:02:23.516Z,5.50
2019-03-28T11:03:22.519Z,5.20
2019-03-28T11:04:22.674Z,4.90
2019-03-28T11:05:22.494Z,5.20
2019-03-28T11:06:22.473Z,5.60
2019-03-28T11:07:22.460Z,5.00
2019-03-28T11:08:22.453Z,5.40
2019-03-28T11:09:22.486Z,5.20
2019-03-28T11:10:22.445Z,5.20
2019-03-28T11:11:22.581Z,5.80
2019-03-28T11:12:22.414Z,6.70
2019-03-28T11:13:22.409Z,5.40
2019-03-28T11:14:22.417Z,5.70
2019-03-28T11:15:22.396Z,4.70
2019-03-28T11:16:22.371Z,5.10
2019-03-28T11:17:22.356Z,4.80
2019-03-28T11:18:22.348Z,5.20
2019-03-28T11:19:22.342Z,4.30
2019-03-28T11:20:22.339Z,4.50
2019-03-28T11:21:22.322Z,4.50
2019-03-28T11:22:22.323Z,5.00
2019-03-28T11:23:22.295Z,4.30
2019-03-28T11:24:22.296Z,4.20
2019-03-28T11:25:22.363Z,4.00
2019-03-28T11:26:22.258Z,4.00
2019-03-28T11:27:22.272Z,3.90
2019-03-28T11:28:23.504Z,4.80
2019-03-28T11:29:22.235Z,4.80
2019-03-28T11:30:22.379Z,5.10
2019-03-28T11:31:22.228Z,4.90
2019-03-28T11:32:22.207Z,4.80
2019-03-28T11:33:22.344Z,5.00
2019-03-28T11:34:22.229Z,5.60
2019-03-28T11:35:22.174Z,5.00
2019-03-28T11:36:22.155Z,4.90
2019-03-28T11:37:26.493Z,4.20
2019-03-28T11:38:22.132Z,6.60
2019-03-28T11:39:22.140Z,4.10
2019-03-28T11:40:24.531Z,5.30
2019-03-28T11:41:22.116Z,4.80
2019-03-28T11:42:22.087Z,5.20
2019-03-28T11:43:22.081Z,4.10
2019-03-28T11:44:22.151Z,3.40
2019-03-28T11:45:22.094Z,5.30
2019-03-28T11:46:22.047Z,4.00
2019-03-28T11:47:22.515Z,3.70
2019-03-28T11:48:22.022Z,3.50
2019-03-28T11:49:22.017Z,3.60
2019-03-28T11:50:22.003Z,3.80
2019-03-28T11:51:22.000Z,4.10
2019-03-28T11:52:21.982Z,3.20
2019-03-28T11:53:21.968Z,2.70
2019-03-28T11:54:21.958Z,2.30
2019-03-28T11:55:21.953Z,1.70
2019-03-28T11:56:21.939Z,1.70
2019-03-28T11:57:21.937Z,1.70
2019-03-28T11:58:21.913Z,2.80
2019-03-28T11:59:21.911Z,1.90
2019-03-28T12:00:21.893Z,1.90
2019-03-28T12:01:21.884Z,1.50
2019-03-28T12:02:25.122Z,1.80
2019-03-28T12:03:21.868Z,2.00
2019-03-28T12:04:21.856Z,2.00
2019-03-28T12:05:21.845Z,1.80
2019-03-28T12:06:21.835Z,1.80
2019-03-28T12:07:21.818Z,1.60
2019-03-28T12:08:21.819Z,1.90
2019-03-28T12:09:21.800Z,1.80
2019-03-28T12:10:21.791Z,1.30
2019-03-28T12:11:21.815Z,1.80
2019-03-28T12:12:21.776Z,1.60
2019-03-28T12:13:21.776Z,1.60
2019-03-28T12:14:21.793Z,1.60
2019-03-28T12:15:21.779Z,1.60
2019-03-28T12:16:21.724Z,1.80
2019-03-28T12:17:21.721Z,1.60
2019-03-28T12:18:24.841Z,1.70
2019-03-28T12:19:21.694Z,1.40
2019-03-28T12:20:21.715Z,1.50
2019-03-28T12:21:21.736Z,1.60
2019-03-28T12:22:21.715Z,1.40
2019-03-28T12:23:22.396Z,1.50
2019-03-28T12:24:21.694Z,1.40
2019-03-28T12:25:21.631Z,1.30
2019-03-28T12:26:21.659Z,1.10
2019-03-28T12:27:21.676Z,1.70
2019-03-28T12:28:21.604Z,1.80
2019-03-28T12:29:21.625Z,1.70
2019-03-28T12:30:21.603Z,1.40
2019-03-28T12:31:21.573Z,1.70
2019-03-28T12:32:21.585Z,2.30
2019-03-28T12:33:21.570Z,2.20
2019-03-28T12:34:21.544Z,1.90
2019-03-28T12:35:21.532Z,1.90
2019-03-28T12:36:21.515Z,1.60
2019-03-28T12:37:21.498Z,1.40
2019-03-28T12:38:21.486Z,1.80
2019-03-28T12:39:21.476Z,1.50
2019-03-28T12:40:21.471Z,1.70
2019-03-28T12:41:21.482Z,1.20
2019-03-28T12:42:21.449Z,1.70
2019-03-28T12:43:21.436Z,1.90
2019-03-28T12:44:21.491Z,1.70
2019-03-28T12:45:21.409Z,2.40
2019-03-28T12:46:21.410Z,1.30
2019-03-28T12:47:21.429Z,1.50
2019-03-28T12:48:21.380Z,1.80
2019-03-28T12:49:21.397Z,1.60
2019-03-28T12:50:21.388Z,1.60
2019-03-28T12:51:22.268Z,3.20
2019-03-28T12:52:21.345Z,2.90
2019-03-28T12:53:21.327Z,2.70
2019-03-28T12:54:21.384Z,2.60
2019-03-28T12:55:21.378Z,4.70
2019-03-28T12:56:21.371Z,2.80
2019-03-28T12:57:21.291Z,2.30
2019-03-28T12:58:21.834Z,1.90
2019-03-28T12:59:21.282Z,3.20
2019-03-28T13:00:21.257Z,2.10
2019-03-28T13:01:21.259Z,1.50
2019-03-28T13:02:29.908Z,3.80
2019-03-28T13:03:22.253Z,2.40
2019-03-28T13:04:21.220Z,3.40
2019-03-28T13:05:21.213Z,2.40
2019-03-28T13:06:21.197Z,2.00
2019-03-28T13:07:21.215Z,4.00
2019-03-28T13:08:21.983Z,4.60
2019-03-28T13:09:21.156Z,2.70
2019-03-28T13:10:21.143Z,2.60
2019-03-28T13:11:21.812Z,2.30
2019-03-28T13:12:21.782Z,2.50
2019-03-28T13:13:21.520Z,2.70
2019-03-28T13:14:21.880Z,2.60
2019-03-28T13:15:21.565Z,2.80
2019-03-28T13:16:21.207Z,2.60
2019-03-28T13:17:22.280Z,3.20
2019-03-28T13:18:21.213Z,2.30